createdAt,value
2019-03-04T00:00:40.535Z,-0.8
2019-03-04T00:01:30.632Z,-0.8
2019-03-04T00:02:20.666Z,-0.8
2019-03-04T00:03:11.005Z,-0.8
2019-03-04T00:04:01.059Z,-0.8
2019-03-04T00:04:50.837Z,-0.8
2019-03-04T00:05:41.182Z,-0.8
2019-03-04T00:06:31.234Z,-0.9
2019-03-04T00:07:21.022Z,-0.8
2019-03-04T00:08:11.069Z,-0.9
2019-03-04T00:09:01.406Z,-0.9
2019-03-04T00:09:51.486Z,-0.9
2019-03-04T00:14:51.546Z,-1
2019-03-04T00:15:41.611Z,-1
2019-03-04T00:16:31.674Z,-1
2019-03-04T00:17:21.719Z,-1
2019-03-04T00:18:12.058Z,-1
2019-03-04T00:19:01.836Z,-1.1
2019-03-04T00:19:52.174Z,-1
2019-03-04T00:20:41.951Z,-1.1
2019-03-04T00:21:32.016Z,-1.1
2019-03-04T00:22:22.352Z,-1.1
2019-03-04T00:23:12.126Z,-1.1
2019-03-04T00:24:02.208Z,-1.1
2019-03-04T00:24:52.253Z,-1.1
2019-03-04T00:25:42.578Z,-1.1
2019-03-04T00:26:32.648Z,-1.1
2019-03-04T00:27:22.755Z,-1.1
2019-03-04T00:28:12.758Z,-1.1
2019-03-04T00:29:02.550Z,-1.2
2019-03-04T00:29:52.888Z,-1.2
2019-03-04T00:30:42.653Z,-1.2
2019-03-04T00:31:32.727Z,-1.2
2019-03-04T00:32:23.055Z,-1.2
2019-03-04T00:33:12.290Z,-1.2
2019-03-04T00:34:02.902Z,-1.3
2019-03-04T00:34:52.963Z,-1.3
2019-03-04T00:35:43.012Z,-1.3
2019-03-04T00:36:33.070Z,-1.3
2019-03-04T00:37:23.128Z,-1.3
2019-03-04T00:38:13.182Z,-1.3
2019-03-04T00:39:03.249Z,-1.3
2019-03-04T00:39:53.304Z,-1.3
2019-03-04T00:40:43.637Z,-1.3
2019-03-04T00:41:33.742Z,-1.3
2019-03-04T00:42:23.756Z,-1.4
2019-03-04T00:43:13.824Z,-1.3
2019-03-04T00:44:03.597Z,-1.4
2019-03-04T00:44:53.682Z,-1.4
2019-03-04T00:45:43.709Z,-1.4
2019-03-04T00:46:33.782Z,-1.4
2019-03-04T00:47:23.571Z,-1.4
2019-03-04T00:48:14.185Z,-1.4
2019-03-04T00:49:03.674Z,-1.4
2019-03-04T00:49:54.017Z,-1.4
2019-03-04T00:50:44.349Z,-1.4
2019-03-04T00:51:34.414Z,-1.4
2019-03-04T00:52:24.195Z,-1.4
2019-03-04T00:53:14.524Z,-1.5
2019-03-04T00:54:04.581Z,-1.5
2019-03-04T00:54:54.639Z,-1.5
2019-03-04T00:55:44.689Z,-1.5
2019-03-04T00:56:34.491Z,-1.5
2019-03-04T00:57:24.553Z,-1.6
2019-03-04T00:58:14.598Z,-1.6
2019-03-04T00:59:04.926Z,-1.6
2019-03-04T00:59:54.705Z,-1.6
2019-03-04T01:00:45.045Z,-1.6
2019-03-04T01:01:34.559Z,-1.6
2019-03-04T01:02:24.882Z,-1.6
2019-03-04T01:03:15.006Z,-1.6
2019-03-04T01:04:05.013Z,-1.6
2019-03-04T01:04:55.353Z,-1.6
2019-03-04T01:05:45.398Z,-1.6
2019-03-04T01:06:35.463Z,-1.6
2019-03-04T01:07:25.249Z,-1.6
2019-03-04T01:08:15.300Z,-1.6
2019-03-04T01:09:05.358Z,-1.6
2019-03-04T01:09:55.426Z,-1.6
2019-03-04T01:10:45.805Z,-1.7
2019-03-04T01:11:35.823Z,-1.7
2019-03-04T01:12:25.865Z,-1.7
2019-03-04T01:13:15.930Z,-1.7
2019-03-04T01:14:05.433Z,-1.7
2019-03-04T01:14:56.048Z,-1.8
2019-03-04T01:15:45.888Z,-1.8
2019-03-04T01:16:36.150Z,-1.8
2019-03-04T01:17:25.939Z,-1.8
2019-03-04T01:18:16.290Z,-1.8
2019-03-04T01:19:06.338Z,-1.8
2019-03-04T01:19:56.115Z,-1.8
2019-03-04T01:20:46.447Z,-1.8
2019-03-04T01:21:36.248Z,-1.8
2019-03-04T01:22:26.571Z,-1.8
2019-03-04T01:23:16.627Z,-1.8
2019-03-04T01:24:06.157Z,-1.8
2019-03-04T01:24:56.487Z,-1.8
2019-03-04T01:25:46.812Z,-1.8
2019-03-04T01:26:36.867Z,-1.9
2019-03-04T01:27:26.922Z,-1.9
2019-03-04T01:28:16.445Z,-1.9
2019-03-04T01:29:06.780Z,-1.9
2019-03-04T01:29:57.151Z,-1.9
2019-03-04T01:30:47.167Z,-1.9
2019-03-04T01:31:37.240Z,-1.9
2019-03-04T01:32:27.276Z,-1.9
2019-03-04T01:33:17.044Z,-1.9
2019-03-04T01:34:07.392Z,-1.9
2019-03-04T01:34:57.181Z,-1.9
2019-03-04T01:35:47.507Z,-1.9
2019-03-04T01:36:37.570Z,-2
2019-03-04T01:37:27.628Z,-2
2019-03-04T01:38:17.422Z,-2
2019-03-04T01:39:07.468Z,-2
2019-03-04T01:39:57.809Z,-2
2019-03-04T01:40:47.870Z,-2
2019-03-04T01:41:37.920Z,-2
2019-03-04T01:42:27.994Z,-2.1
2019-03-04T01:43:17.794Z,-2.1
2019-03-04T01:44:08.111Z,-2.1
2019-03-04T01:44:57.878Z,-2.1
2019-03-04T01:45:47.946Z,-2.1
2019-03-04T01:46:38.268Z,-2.1
2019-03-04T01:47:28.331Z,-2.1
2019-03-04T01:48:18.389Z,-2.1
2019-03-04T01:49:08.176Z,-2.1
2019-03-04T01:49:58.241Z,-2.1
2019-03-04T01:50:48.286Z,-2.1
2019-03-04T01:51:38.637Z,-2.1
2019-03-04T01:52:28.758Z,-2.1
2019-03-04T01:53:18.978Z,-2.1
2019-03-04T01:54:08.533Z,-2.1
2019-03-04T01:54:58.858Z,-2.1
2019-03-04T01:55:48.910Z,-2.1
2019-03-04T01:56:38.740Z,-2.2
2019-03-04T01:57:29.040Z,-2.2
2019-03-04T01:58:18.818Z,-2.2
2019-03-04T01:59:09.155Z,-2.2
2019-03-04T01:59:58.668Z,-2.2
2019-03-04T02:00:49.265Z,-2.2
2019-03-04T02:01:39.063Z,-2.2
2019-03-04T02:02:29.390Z,-2.2
2019-03-04T02:03:19.209Z,-2.2
2019-03-04T02:04:08.938Z,-2.2
2019-03-04T02:04:59.555Z,-2.2
2019-03-04T02:05:49.625Z,-2.2
2019-03-04T02:06:39.128Z,-2.3
2019-03-04T02:07:29.745Z,-2.3
2019-03-04T02:08:19.814Z,-2.3
2019-03-04T02:09:09.868Z,-2.3
2019-03-04T02:09:59.902Z,-2.3
2019-03-04T02:10:49.962Z,-2.3
2019-03-04T02:11:40.035Z,-2.3
2019-03-04T02:12:30.087Z,-2.3
2019-03-04T02:13:19.869Z,-2.3
2019-03-04T02:14:10.262Z,-2.3
2019-03-04T02:15:00.351Z,-2.3
2019-03-04T02:15:50.059Z,-2.3
2019-03-04T02:16:40.112Z,-2.3
2019-03-04T02:17:29.904Z,-2.3
2019-03-04T02:18:20.229Z,-2.3
2019-03-04T02:19:10.584Z,-2.3
2019-03-04T02:20:00.155Z,-2.3
2019-03-04T02:20:50.414Z,-2.3
2019-03-04T02:21:40.457Z,-2.3
2019-03-04T02:22:30.530Z,-2.3
2019-03-04T02:23:20.312Z,-2.4
2019-03-04T02:24:10.425Z,-2.3
2019-03-04T02:25:00.957Z,-2.3
2019-03-04T02:25:51.029Z,-2.3
2019-03-04T02:26:40.801Z,-2.4
2019-03-04T02:27:30.896Z,-2.4
2019-03-04T02:28:21.198Z,-2.4
2019-03-04T02:29:10.989Z,-2.4
2019-03-04T02:30:01.375Z,-2.4
2019-03-04T02:30:51.392Z,-2.4
2019-03-04T02:31:41.452Z,-2.4
2019-03-04T02:32:31.258Z,-2.4
2019-03-04T02:33:21.642Z,-2.4
2019-03-04T02:34:11.649Z,-2.4
2019-03-04T02:35:01.300Z,-2.4
2019-03-04T02:35:51.221Z,-2.4
2019-03-04T02:36:41.786Z,-2.4
2019-03-04T02:37:31.885Z,-2.5
2019-03-04T02:38:21.911Z,-2.5
2019-03-04T02:39:11.715Z,-2.5
2019-03-04T02:40:02.046Z,-2.5
2019-03-04T02:40:52.086Z,-2.5
2019-03-04T02:41:42.157Z,-2.5
2019-03-04T02:42:32.202Z,-2.6
2019-03-04T02:43:22.288Z,-2.6
2019-03-04T02:44:12.335Z,-2.6
2019-03-04T02:45:02.404Z,-2.6
2019-03-04T02:45:52.476Z,-2.6
2019-03-04T02:46:42.506Z,-2.6
2019-03-04T02:47:32.579Z,-2.6
2019-03-04T02:48:22.643Z,-2.6
2019-03-04T02:49:12.748Z,-2.6
2019-03-04T02:50:02.746Z,-2.6
2019-03-04T02:50:52.807Z,-2.6
2019-03-04T02:51:42.322Z,-2.6
2019-03-04T02:52:32.963Z,-2.7
2019-03-04T02:53:22.786Z,-2.7
2019-03-04T02:54:12.506Z,-2.7
2019-03-04T02:55:03.112Z,-2.7
2019-03-04T02:55:53.160Z,-2.8
2019-03-04T02:56:43.205Z,-2.8
2019-03-04T02:57:33.272Z,-2.8
2019-03-04T02:58:23.334Z,-2.8
2019-03-04T02:59:13.391Z,-2.8
2019-03-04T03:00:03.217Z,-2.8
2019-03-04T03:00:53.535Z,-2.8
2019-03-04T03:01:43.303Z,-2.8
2019-03-04T03:02:33.371Z,-2.8
2019-03-04T03:03:23.147Z,-2.8
2019-03-04T03:04:13.759Z,-2.9
2019-03-04T06:05:45.401Z,-1.6
2019-03-04T06:06:35.450Z,-1.4
2019-03-04T06:07:25.520Z,-1.3
2019-03-04T06:08:15.305Z,-1.3
2019-03-04T06:09:05.359Z,-1.1
2019-03-04T06:09:55.676Z,-1
2019-03-04T06:11:35.514Z,-0.8
2019-03-04T06:12:25.854Z,-0.7
2019-03-04T06:13:15.639Z,-0.6
2019-03-04T06:14:05.989Z,-0.4
2019-03-04T06:14:56.042Z,-0.3
2019-03-04T06:15:45.814Z,-0.2
2019-03-04T06:16:36.149Z,-0.1
2019-03-04T06:17:25.924Z,0.1
2019-03-04T06:18:15.984Z,0.3
2019-03-04T06:19:06.049Z,0.4
2019-03-04T06:19:56.381Z,0.6
2019-03-04T06:20:46.439Z,0.8
2019-03-04T06:21:36.214Z,0.9
2019-03-04T06:22:26.273Z,1.1
2019-03-04T06:23:16.604Z,1.3
2019-03-04T06:24:06.673Z,1.5
2019-03-04T06:24:56.446Z,1.7
2019-03-04T06:25:46.856Z,1.9
2019-03-04T06:26:36.841Z,2.1
2019-03-04T06:27:26.639Z,2.4
2019-03-04T06:28:16.415Z,2.6
2019-03-04T06:29:06.741Z,2.8
2019-03-04T06:29:56.533Z,3.1
2019-03-04T06:30:49.180Z,3.3
2019-03-04T06:31:36.951Z,3.6
2019-03-04T06:32:27.265Z,3.9
2019-03-04T06:33:17.323Z,4.2
2019-03-04T06:34:07.363Z,4.5
2019-03-04T06:34:57.148Z,4.8
2019-03-04T06:35:47.213Z,5.1
2019-03-04T06:36:37.543Z,5.4
2019-03-04T06:37:27.623Z,5.7
2019-03-04T06:38:17.658Z,6
2019-03-04T06:39:07.170Z,6.4
2019-03-04T06:39:57.515Z,6.7
2019-03-04T06:40:47.835Z,7.1
2019-03-04T06:41:37.620Z,7.4
2019-03-04T06:42:27.690Z,7.8
2019-03-04T06:43:18.010Z,8.1
2019-03-04T06:44:08.063Z,8.5
2019-03-04T06:44:58.122Z,8.9
2019-03-04T06:45:47.915Z,9.3
2019-03-04T06:46:38.235Z,9.6
2019-03-04T06:47:28.307Z,10
2019-03-04T06:48:18.092Z,10.4
2019-03-04T06:49:08.137Z,10.8
2019-03-04T06:49:58.465Z,11.2
2019-03-04T06:50:48.554Z,11.6
2019-03-04T06:51:38.321Z,12.1
2019-03-04T06:52:28.647Z,12.5
2019-03-04T06:53:18.767Z,12.9
2019-03-04T06:54:08.759Z,13.3
2019-03-04T06:54:58.552Z,13.8
2019-03-04T06:55:48.607Z,14.2
2019-03-04T06:56:38.937Z,14.7
2019-03-04T06:57:30.202Z,9.5
2019-03-04T06:58:19.102Z,6.4
2019-03-04T06:59:08.556Z,28.1
2019-03-04T06:59:58.892Z,42.6
2019-03-04T07:00:49.283Z,43.2
2019-03-04T07:01:39.291Z,43.8
2019-03-04T07:02:29.345Z,42.9
2019-03-04T07:03:19.135Z,41.4
2019-03-04T07:05:45.079Z,38.9
2019-03-04T07:06:35.136Z,38.4
2019-03-04T07:07:25.469Z,37.9
2019-03-04T07:08:15.523Z,37.6
2019-03-04T07:09:05.309Z,37.4
2019-03-04T07:09:55.374Z,37.2
2019-03-04T07:10:45.426Z,36.9
2019-03-04T07:11:35.754Z,36.8
2019-03-04T07:12:25.806Z,36.6
2019-03-04T07:13:15.913Z,36.5
2019-03-04T07:14:05.664Z,36.4
2019-03-04T07:14:55.700Z,36.3
2019-03-04T07:15:45.779Z,36.2
2019-03-04T07:16:35.838Z,36.1
2019-03-04T07:17:25.883Z,36
2019-03-04T07:18:15.936Z,35.9
2019-03-04T07:19:06.008Z,37.8
2019-03-04T07:19:56.325Z,41.2
2019-03-04T07:20:46.115Z,47
2019-03-04T07:21:36.457Z,49.5
2019-03-04T07:22:26.234Z,49.3
2019-03-04T07:23:16.567Z,52.5
2019-03-04T07:24:06.428Z,54.2
2019-03-04T07:24:56.405Z,54.4
2019-03-04T07:25:46.733Z,53.6
2019-03-04T07:26:36.281Z,52.6
2019-03-04T07:27:26.573Z,52.5
2019-03-04T07:28:16.917Z,52.7
2019-03-04T07:29:06.969Z,53.1
2019-03-04T07:29:56.477Z,53.5
2019-03-04T07:30:46.800Z,53.9
2019-03-04T07:31:37.135Z,54.1
2019-03-04T07:32:27.200Z,54.3
2019-03-04T07:33:17.347Z,54.3
2019-03-04T07:34:06.772Z,54.3
2019-03-04T07:34:57.389Z,54.4
2019-03-04T07:35:47.427Z,54.5
2019-03-04T07:36:37.207Z,54.6
2019-03-04T07:37:27.547Z,54.8
2019-03-04T07:38:17.324Z,54.9
2019-03-04T07:39:07.660Z,55.1
2019-03-04T07:39:57.729Z,55.1
2019-03-04T07:40:47.499Z,55.3
2019-03-04T07:41:37.561Z,55.4
2019-03-04T07:42:27.346Z,55.5
2019-03-04T07:43:17.684Z,55.6
2019-03-04T07:44:07.746Z,55.7
2019-03-04T07:44:58.069Z,55.8
2019-03-04T07:45:48.127Z,55.9
2019-03-04T07:46:38.188Z,56.1
2019-03-04T07:47:27.971Z,56.2
2019-03-04T07:48:17.779Z,56.3
2019-03-04T07:49:08.091Z,56.4
2019-03-04T07:49:58.151Z,56.5
2019-03-04T07:50:48.213Z,56.6
2019-03-04T07:51:38.550Z,56.7
2019-03-04T07:52:28.054Z,56.8
2019-03-04T07:53:20.366Z,56.9
2019-03-04T07:54:08.434Z,57
2019-03-04T07:54:58.783Z,57.1
2019-03-04T07:55:48.843Z,57.2
2019-03-04T07:56:38.891Z,57.3
2019-03-04T07:57:28.951Z,57.4
2019-03-04T07:58:18.738Z,57.4
2019-03-04T07:59:08.796Z,57.6
2019-03-04T07:59:59.118Z,57.6
2019-03-04T08:01:39.243Z,57.8
2019-03-04T08:02:29.308Z,57.9
2019-03-04T08:03:18.818Z,57.9
2019-03-04T08:04:09.143Z,58.1
2019-03-04T08:04:59.465Z,58.2
2019-03-04T08:05:49.263Z,58.3
2019-03-04T08:06:39.058Z,58.4
2019-03-04T08:07:29.378Z,58.4
2019-03-04T08:08:19.708Z,58.4
2019-03-04T08:09:09.774Z,58.5
2019-03-04T08:10:49.875Z,58.6
2019-03-04T08:11:39.674Z,58.7
2019-03-04T08:12:30.020Z,58.8
2019-03-04T08:13:19.522Z,58.9
2019-03-04T08:14:09.568Z,58.9
2019-03-04T08:15:00.292Z,59
2019-03-04T08:15:50.236Z,59.1
2019-03-04T08:16:40.313Z,59.2
2019-03-04T08:17:30.352Z,59.3
2019-03-04T08:18:20.137Z,59.3
2019-03-04T08:19:10.469Z,59.4
2019-03-04T08:20:00.795Z,59.4
2019-03-04T08:20:50.592Z,59.6
2019-03-04T08:21:40.128Z,59.6
2019-03-04T08:22:30.724Z,59.8
2019-03-04T08:23:20.495Z,59.8
2019-03-04T08:24:10.558Z,59.9
2019-03-04T08:25:00.885Z,59.9
2019-03-04T08:25:50.935Z,60.1
2019-03-04T08:26:40.715Z,60.1
2019-03-04T08:27:31.042Z,60.2
2019-03-04T08:28:21.126Z,60.3
2019-03-04T08:29:11.174Z,60.3
2019-03-04T08:30:01.280Z,60.4
2019-03-04T08:30:51.304Z,60.5
2019-03-04T08:31:41.074Z,60.6
2019-03-04T08:32:31.407Z,60.7
2019-03-04T08:33:21.030Z,60.8
2019-03-04T08:34:11.511Z,60.8
2019-03-04T08:35:01.551Z,60.9
2019-03-04T08:35:51.644Z,60.9
2019-03-04T08:36:41.691Z,61
2019-03-04T08:37:31.759Z,61.1
2019-03-04T08:38:21.541Z,61.2
2019-03-04T08:39:11.589Z,61.3
2019-03-04T08:40:01.941Z,61.3
2019-03-04T08:40:51.704Z,61.4
2019-03-04T08:41:41.778Z,61.4
2019-03-04T08:42:31.844Z,61.6
2019-03-04T08:43:21.606Z,61.6
2019-03-04T08:44:12.213Z,61.7
2019-03-04T08:45:02.318Z,61.8
2019-03-04T08:45:52.333Z,61.8
2019-03-04T08:46:42.411Z,62
2019-03-04T08:47:32.473Z,62.1
2019-03-04T08:48:22.536Z,62.1
2019-03-04T08:49:12.582Z,62.2
2019-03-04T08:50:02.656Z,62.3
2019-03-04T08:50:52.700Z,62.3
2019-03-04T08:51:42.483Z,62.4
2019-03-04T08:52:32.269Z,62.4
2019-03-04T08:53:22.580Z,62.5
2019-03-04T08:54:12.953Z,62.6
2019-03-04T08:55:02.738Z,62.7
2019-03-04T08:55:53.063Z,62.8
2019-03-04T08:56:42.829Z,62.9
2019-03-04T08:57:32.877Z,62.9
2019-03-04T08:58:22.938Z,63
2019-03-04T08:59:13.273Z,63.1
2019-03-04T09:00:02.844Z,63.1
2019-03-04T09:00:53.382Z,63.3
2019-03-04T09:01:43.443Z,63.3
2019-03-04T09:02:33.027Z,63.4
2019-03-04T09:03:23.358Z,63.4
2019-03-04T09:04:13.142Z,63.6
2019-03-04T09:05:03.206Z,63.6
2019-03-04T09:05:52.973Z,63.7
2019-03-04T09:06:43.320Z,63.8
2019-03-04T09:07:33.865Z,63.9
2019-03-04T09:08:23.449Z,63.9
2019-03-04T09:09:13.694Z,64
2019-03-04T09:10:04.048Z,64.1
2019-03-04T09:10:53.610Z,64.2
2019-03-04T09:11:43.675Z,64.3
2019-03-04T09:12:35.854Z,64.3
2019-03-04T09:13:23.780Z,64.4
2019-03-04T09:14:13.844Z,64.5
2019-03-04T09:15:03.651Z,64.6
2019-03-04T09:15:53.701Z,64.6
2019-03-04T09:16:43.734Z,64.7
2019-03-04T09:17:34.071Z,64.8
2019-03-04T09:18:23.867Z,64.9
2019-03-04T09:19:14.189Z,65
2019-03-04T09:20:04.255Z,65.1
2019-03-04T09:20:54.029Z,65.1
2019-03-04T09:21:44.362Z,65.2
2019-03-04T09:22:34.436Z,65.3
2019-03-04T09:23:24.486Z,65.3
2019-03-04T09:24:14.546Z,65.4
2019-03-04T09:25:04.344Z,65.5
2019-03-04T09:25:54.665Z,65.6
2019-03-04T09:26:44.444Z,65.7
2019-03-04T09:27:34.987Z,65.7
2019-03-04T09:28:24.831Z,65.8
2019-03-04T09:29:14.624Z,65.9
2019-03-04T09:30:04.679Z,65.9
2019-03-04T09:30:55.011Z,66
2019-03-04T09:31:45.548Z,66.1
2019-03-04T09:32:35.363Z,66.2
2019-03-04T09:33:25.403Z,66.3
2019-03-04T09:34:15.454Z,66.3
2019-03-04T09:35:05.778Z,66.4
2019-03-04T09:35:55.851Z,66.4
2019-03-04T09:36:45.653Z,66.5
2019-03-04T09:37:35.956Z,66.6
2019-03-04T09:38:25.738Z,66.7
2019-03-04T09:39:15.798Z,66.8
2019-03-04T09:40:06.133Z,66.8
2019-03-04T09:40:55.913Z,67
2019-03-04T09:41:46.258Z,67.1
2019-03-04T09:42:36.302Z,67.1
2019-03-04T09:43:25.819Z,67.2
2019-03-04T09:44:16.150Z,67.3
2019-03-04T09:45:06.270Z,67.4
2019-03-04T09:45:56.262Z,67.5
2019-03-04T09:46:46.600Z,67.6
2019-03-04T09:47:36.657Z,67.6
2019-03-04T09:48:26.718Z,67.7
2019-03-04T09:49:16.790Z,67.8
2019-03-04T09:50:06.550Z,67.9
2019-03-04T09:50:56.897Z,67.9
2019-03-04T09:51:46.990Z,68
2019-03-04T09:52:37.007Z,68.1
2019-03-04T09:53:26.800Z,68.2
2019-03-04T09:54:17.127Z,68.3
2019-03-04T09:55:07.175Z,68.4
2019-03-04T09:55:57.237Z,68.4
2019-03-04T09:56:46.859Z,68.5
2019-03-04T09:57:37.382Z,68.6
2019-03-04T09:58:27.464Z,68.7
2019-03-04T09:59:17.197Z,68.7
2019-03-04T10:00:07.527Z,68.8
2019-03-04T10:00:57.587Z,68.8
2019-03-04T10:01:47.656Z,68.9
2019-03-04T10:02:37.759Z,69
2019-03-04T10:03:27.754Z,69.1
2019-03-04T10:04:17.821Z,69.2
2019-03-04T10:06:45.192Z,69.4
2019-03-04T10:07:35.254Z,69.5
2019-03-04T10:08:34.092Z,69.6
2019-03-04T10:09:15.388Z,69.6
2019-03-04T10:10:05.157Z,69.6
2019-03-04T10:10:54.947Z,69.8
2019-03-04T10:11:45.541Z,69.8
2019-03-04T10:12:35.593Z,69.9
2019-03-04T10:13:25.663Z,69.9
2019-03-04T10:14:15.441Z,70
2019-03-04T10:15:10.231Z,70.1
2019-03-04T10:15:55.571Z,70.1
2019-03-04T10:16:45.892Z,70.2
2019-03-04T10:17:35.684Z,70.3
2019-03-04T10:18:26.018Z,70.3
2019-03-04T10:19:15.791Z,70.4
2019-03-04T10:20:05.843Z,70.4
2019-03-04T10:20:55.903Z,70.4
2019-03-04T10:21:45.968Z,70.5
2019-03-04T10:22:36.033Z,70.6
2019-03-04T10:23:26.096Z,70.7
2019-03-04T10:24:15.871Z,70.8
2019-03-04T10:25:06.481Z,70.8
2019-03-04T10:25:56.260Z,70.9
2019-03-04T10:26:46.605Z,70.9
2019-03-04T10:27:36.366Z,71
2019-03-04T10:28:26.160Z,71.1
2019-03-04T10:29:16.495Z,71.1
2019-03-04T10:30:06.566Z,71.2
2019-03-04T10:30:56.919Z,71.3
2019-03-04T10:31:46.938Z,71.4
2019-03-04T10:32:36.998Z,71.4
2019-03-04T10:33:27.115Z,71.4
2019-03-04T10:34:17.120Z,71.5
2019-03-04T10:35:06.928Z,71.6
2019-03-04T10:35:56.960Z,71.6
2019-03-04T10:36:47.300Z,71.6
2019-03-04T10:37:37.347Z,71.7
2019-03-04T10:38:27.403Z,71.8
2019-03-04T10:39:23.680Z,71.8
2019-03-04T10:40:07.262Z,71.8
2019-03-04T10:40:59.265Z,71.8
2019-03-04T10:41:47.093Z,71.9
2019-03-04T10:42:37.442Z,71.9
2019-03-04T10:43:27.490Z,72
2019-03-04T10:44:17.820Z,72.1
2019-03-04T10:45:07.322Z,72.1
2019-03-04T10:45:57.935Z,72.2
2019-03-04T10:46:47.458Z,72.3
2019-03-04T10:47:38.047Z,72.3
2019-03-04T10:48:27.832Z,72.3
2019-03-04T10:49:18.174Z,72.3
2019-03-04T10:50:08.229Z,72.4
2019-03-04T10:50:58.286Z,72.5
2019-03-04T10:51:48.086Z,72.5
2019-03-04T10:52:38.399Z,72.6
2019-03-04T10:53:28.458Z,72.6
2019-03-04T10:54:18.521Z,72.6
2019-03-04T10:55:08.587Z,72.7
2019-03-04T10:55:58.377Z,72.8
2019-03-04T10:56:48.421Z,72.8
2019-03-04T10:57:38.753Z,72.9
2019-03-04T10:58:28.810Z,73
2019-03-04T10:59:18.862Z,73.1
2019-03-04T11:00:08.951Z,73.2
2019-03-04T11:00:58.735Z,73.2
2019-03-04T11:01:51.508Z,73.3
2019-03-04T11:02:38.538Z,73.3
2019-03-04T11:03:29.159Z,73.4
2019-03-04T11:04:18.940Z,73.4
2019-03-04T11:05:08.983Z,73.4
2019-03-04T11:05:59.051Z,73.4
2019-03-04T11:06:49.120Z,73.4
2019-03-04T11:07:39.253Z,73.5
2019-03-04T11:08:29.267Z,73.6
2019-03-04T11:09:19.083Z,73.6
2019-03-04T11:10:09.146Z,73.6
2019-03-04T11:10:59.430Z,73.7
2019-03-04T11:11:49.736Z,73.8
2019-03-04T11:12:39.788Z,73.8
2019-03-04T11:13:29.860Z,73.8
2019-03-04T11:14:19.656Z,73.9
2019-03-04T11:15:09.978Z,73.9
2019-03-04T11:15:59.757Z,73.9
2019-03-04T11:16:50.095Z,73.9
2019-03-04T11:17:39.870Z,74
2019-03-04T11:18:29.935Z,74.1
2019-03-04T11:19:20.272Z,74.1
2019-03-04T11:20:10.320Z,74.1
2019-03-04T11:21:00.116Z,74.1
2019-03-04T11:21:49.892Z,74.1
2019-03-04T11:22:40.223Z,74.2
2019-03-04T11:23:30.554Z,74.3
2019-03-04T11:24:20.620Z,74.3
2019-03-04T11:25:10.671Z,74.3
2019-03-04T11:26:00.736Z,74.3
2019-03-04T11:26:50.787Z,74.3
2019-03-04T11:27:40.574Z,74.4
2019-03-04T11:28:30.900Z,74.4
2019-03-04T11:29:20.969Z,74.4
2019-03-04T11:30:11.019Z,74.4
2019-03-04T11:31:00.811Z,74.5
2019-03-04T11:31:51.150Z,74.6
2019-03-04T11:32:41.240Z,74.6
2019-03-04T11:33:31.242Z,74.6
2019-03-04T11:34:20.826Z,74.6
2019-03-04T11:35:11.369Z,74.7
2019-03-04T11:36:01.439Z,74.7
2019-03-04T11:36:51.214Z,74.8
2019-03-04T11:37:41.559Z,74.7
2019-03-04T11:38:31.324Z,74.7
2019-03-04T11:39:21.663Z,74.8
2019-03-04T11:40:11.716Z,74.8
2019-03-04T11:41:01.771Z,74.9
2019-03-04T11:41:51.834Z,74.9
2019-03-04T11:42:41.899Z,74.9
2019-03-04T11:43:31.681Z,74.9
2019-03-04T11:44:22.016Z,74.9
2019-03-04T11:45:12.082Z,74.9
2019-03-04T11:46:02.136Z,74.9
2019-03-04T11:46:52.193Z,75
2019-03-04T11:47:42.244Z,75
2019-03-04T11:48:32.302Z,75
2019-03-04T11:49:22.131Z,75
2019-03-04T11:50:11.923Z,75.1
2019-03-04T11:51:02.227Z,75.1
2019-03-04T11:51:52.536Z,75.1
2019-03-04T11:52:42.590Z,75.1
2019-03-04T11:53:32.650Z,75.1
2019-03-04T11:54:22.708Z,75.2
2019-03-04T11:55:12.789Z,75.2
2019-03-04T11:56:02.843Z,75.3
2019-03-04T11:56:52.618Z,75.3
2019-03-04T11:57:42.675Z,75.3
2019-03-04T11:58:32.996Z,75.3
2019-03-04T11:59:23.098Z,75.3
2019-03-04T12:00:12.852Z,75.2
2019-03-04T12:01:03.190Z,75.2
2019-03-04T12:01:52.973Z,75.6
2019-03-04T12:02:43.298Z,74.5
2019-03-04T12:03:33.365Z,73.1
2019-03-04T12:04:23.153Z,73.6
2019-03-04T12:06:44.851Z,74.4
2019-03-04T12:07:35.170Z,74.2
2019-03-04T12:08:25.220Z,74.3
2019-03-04T12:09:15.281Z,73.8
2019-03-04T12:10:05.327Z,73.2
2019-03-04T12:10:55.381Z,73.2
2019-03-04T12:11:45.441Z,74.3
2019-03-04T12:12:35.230Z,74.7
2019-03-04T12:13:25.562Z,74.6
2019-03-04T12:14:15.614Z,74.3
2019-03-04T12:15:05.419Z,74.2
2019-03-04T12:15:55.451Z,73.6
2019-03-04T12:16:45.522Z,72.9
2019-03-04T12:17:35.301Z,73.4
2019-03-04T12:18:25.901Z,74.5
2019-03-04T12:19:16.012Z,74.8
2019-03-04T12:20:06.079Z,74.5
2019-03-04T12:20:56.084Z,74.3
2019-03-04T12:21:45.872Z,74.3
2019-03-04T12:22:35.922Z,73.4
2019-03-04T12:23:26.279Z,72.7
2019-03-04T12:24:16.109Z,73.8
2019-03-04T12:25:06.101Z,74.6
2019-03-04T12:25:56.162Z,74.7
2019-03-04T12:26:46.216Z,74.4
2019-03-04T12:27:36.333Z,74.2
2019-03-04T12:28:26.614Z,74.1
2019-03-04T12:29:16.676Z,73.2
2019-03-04T12:30:05.916Z,72.8
2019-03-04T12:30:56.789Z,74.1
2019-03-04T12:31:46.581Z,74.8
2019-03-04T12:32:36.899Z,74.8
2019-03-04T12:33:26.959Z,74.5
2019-03-04T12:34:26.202Z,74.3
2019-03-04T12:35:06.793Z,73.8
2019-03-04T12:35:57.136Z,73.3
2019-03-04T12:36:47.198Z,73.1
2019-03-04T12:37:37.269Z,74.3
2019-03-04T12:38:27.313Z,74.7
2019-03-04T12:39:17.108Z,74.6
2019-03-04T12:40:07.483Z,74.4
2019-03-04T12:40:57.499Z,74.2
2019-03-04T12:41:49.643Z,73.8
2019-03-04T12:42:37.628Z,73.1
2019-03-04T12:43:27.686Z,73.4
2019-03-04T12:44:17.448Z,74.4
2019-03-04T12:45:07.508Z,74.8
2019-03-04T12:45:57.558Z,74.7
2019-03-04T12:46:47.893Z,74.4
2019-03-04T12:47:37.678Z,74.3
2019-03-04T12:48:28.016Z,73.8
2019-03-04T12:49:18.070Z,73.1
2019-03-04T12:50:07.910Z,73.6
2019-03-04T12:50:57.920Z,74.4
2019-03-04T12:51:47.976Z,74.6
2019-03-04T12:52:38.313Z,74.6
2019-03-04T12:53:38.400Z,74.4
2019-03-04T12:54:18.432Z,74.3
2019-03-04T12:55:08.212Z,73.9
2019-03-04T12:55:58.544Z,73.5
2019-03-04T12:56:48.605Z,73.3
2019-03-04T12:57:38.662Z,74.3
2019-03-04T12:58:28.175Z,74.3
2019-03-04T12:59:18.504Z,74.9
2019-03-04T13:00:08.857Z,75.2
2019-03-04T13:00:58.897Z,75.2
2019-03-04T13:01:48.957Z,75.1
2019-03-04T13:02:39.020Z,74.8
2019-03-04T13:03:28.797Z,74.6
2019-03-04T13:04:19.139Z,74.6
2019-03-04T13:05:09.191Z,74.6
2019-03-04T13:05:59.254Z,74.7
2019-03-04T13:06:49.302Z,74.7
2019-03-04T13:07:39.369Z,74.7
2019-03-04T13:08:29.431Z,74.7
2019-03-04T13:09:19.491Z,74.6
2019-03-04T13:10:09.001Z,74.6
2019-03-04T13:10:59.613Z,74.5
2019-03-04T13:11:49.406Z,74.5
2019-03-04T13:12:39.713Z,74.4
2019-03-04T13:13:29.517Z,74.4
2019-03-04T13:14:19.829Z,74.4
2019-03-04T13:15:09.631Z,74.4
2019-03-04T13:15:59.409Z,74.3
2019-03-04T13:16:50.015Z,74.3
2019-03-04T13:17:40.073Z,74.3
2019-03-04T13:18:30.124Z,74.2
2019-03-04T13:19:19.906Z,74.2
2019-03-04T13:20:10.259Z,74.1
2019-03-04T13:21:00.303Z,74.1
2019-03-04T13:21:50.094Z,74.1
2019-03-04T13:22:40.424Z,74.1
2019-03-04T13:23:30.201Z,74
2019-03-04T13:24:20.592Z,73.9
2019-03-04T13:25:10.360Z,73.9
2019-03-04T13:26:00.665Z,73.8
2019-03-04T13:26:50.436Z,73.7
2019-03-04T13:27:40.490Z,73.6
2019-03-04T13:28:30.840Z,73.5
2019-03-04T13:29:20.893Z,73.5
2019-03-04T13:30:10.688Z,73.4
2019-03-04T13:31:01.030Z,73.3
2019-03-04T13:31:50.590Z,73.3
2019-03-04T13:32:41.138Z,73.2
2019-03-04T13:33:31.181Z,73.1
2019-03-04T13:34:20.501Z,73.1
2019-03-04T13:35:11.307Z,73
2019-03-04T13:36:01.100Z,72.9
2019-03-04T13:36:50.945Z,72.9
2019-03-04T13:37:41.012Z,72.8
2019-03-04T13:38:31.055Z,72.8
2019-03-04T13:39:21.136Z,72.7
2019-03-04T13:40:11.174Z,72.6
2019-03-04T13:41:01.239Z,72.4
2019-03-04T13:41:51.302Z,72.4
2019-03-04T13:42:41.384Z,72.3
2019-03-04T13:43:31.152Z,72.3
2019-03-04T13:44:21.478Z,72.2
2019-03-04T13:45:11.529Z,72.1
2019-03-04T13:46:01.322Z,72
2019-03-04T13:46:51.683Z,71.9
2019-03-04T13:47:42.194Z,71.8
2019-03-04T13:48:31.767Z,71.8
2019-03-04T13:49:21.562Z,71.7
2019-03-04T13:50:12.367Z,71.6
2019-03-04T13:51:02.450Z,71.5
2019-03-04T13:51:51.747Z,71.4
2019-03-04T13:52:42.547Z,71.4
2019-03-04T13:53:32.337Z,71.3
2019-03-04T13:54:22.666Z,71.2
2019-03-04T13:55:12.731Z,71.1
2019-03-04T13:56:01.779Z,71
2019-03-04T13:56:52.854Z,70.9
2019-03-04T13:57:42.356Z,70.8
2019-03-04T13:58:32.955Z,70.8
2019-03-04T13:59:23.041Z,70.6
2019-03-04T14:00:12.805Z,70.5
2019-03-04T14:01:03.133Z,70.4
2019-03-04T14:01:53.207Z,70.4
2019-03-04T14:02:42.982Z,70.3
2019-03-04T14:03:32.776Z,70.1
2019-03-04T14:04:23.390Z,70.1
2019-03-04T14:05:13.493Z,69.9
2019-03-04T14:07:45.612Z,69.7
2019-03-04T14:08:35.794Z,69.5
2019-03-04T16:07:44.904Z,27.1
2019-03-04T16:08:34.684Z,26.8
2019-03-04T16:09:24.547Z,26.6
2019-03-04T16:10:14.330Z,26.3
2019-03-04T16:11:04.864Z,26
2019-03-04T16:11:54.912Z,25.7
2019-03-04T16:12:45.244Z,25.4
2019-03-04T16:13:34.829Z,25.1
2019-03-04T16:14:25.105Z,24.8
2019-03-04T16:15:14.955Z,24.6
2019-03-04T16:16:05.009Z,24.3
2019-03-04T16:16:55.554Z,24.1
2019-03-04T16:17:44.581Z,23.9
2019-03-04T16:18:35.658Z,23.6
2019-03-04T16:19:25.453Z,23.4
2019-03-04T16:20:17.398Z,23.3
2019-03-04T16:21:05.082Z,23
2019-03-04T16:21:55.909Z,22.9